Time,TemperatureF,DewpointF,PressureIn,WindDirection,WindDirectionDegrees,WindSpeedMPH,WindSpeedGustMPH,Humidity,HourlyPrecipIn,Conditions,Clouds,dailyrainin,SoftwareType,DateUTC
2013-02-01 00:03:00,22.8,11.0,30.01,SW,234,4.9,7.2,60,0.00,,CLR,0.00,VWS V14.01,2013-02-01 07:03:00,
2013-02-01 00:08:00,25.0,11.5,30.01,SW,225,6.3,8.3,56,0.00,,CLR,0.00,VWS V14.01,2013-02-01 07:08:00,
2013-02-01 00:13:00,25.5,10.8,30.01,SW,231,7.6,8.3,53,0.00,,CLR,0.00,VWS V14.01,2013-02-01 07:13:00,
2013-02-01 00:18:00,26.4,11.6,30.01,WSW,245,8.1,8.7,53,0.00,,CLR,0.00,VWS V14.01,2013-02-01 07:18:00,
2013-02-01 00:23:00,26.8,12.4,30.01,West,268,6.3,8.7,54,0.00,,CLR,0.00,VWS V14.01,2013-02-01 07:23:00,
2013-02-01 00:28:00,27.3,12.5,30.01,West,261,5.4,8.7,53,0.00,,CLR,0.00,VWS V14.01,2013-02-01 07:28:00,
2013-02-01 00:33:00,26.8,11.5,30.01,West,270,4.0,4.9,52,0.00,,CLR,0.00,VWS V14.01,2013-02-01 07:33:00,
2013-02-01 00:38:00,25.7,11.4,30.01,SW,224,4.0,6.3,54,0.00,,CLR,0.00,VWS V14.01,2013-02-01 07:38:00,
2013-02-01 00:43:00,24.4,10.6,30.01,West,263,5.8,7.6,55,0.00,,CLR,0.00,VWS V14.01,2013-02-01 07:43:00,
2013-02-01 00:48:00,25.3,11.9,30.01,West,270,4.9,7.6,56,0.00,,CLR,0.00,VWS V14.01,2013-02-01 07:48:00,
2013-02-01 00:53:00,24.6,10.8,30.01,WSW,256,5.8,7.6,55,0.00,,CLR,0.00,VWS V14.01,2013-02-01 07:53:00,
2013-02-01 00:58:00,23.5,10.9,30.01,WSW,253,4.9,7.6,58,0.00,,CLR,0.00,VWS V14.01,2013-02-01 07:58:00,
2013-02-01 01:03:00,23.5,10.9,30.01,SW,235,6.7,7.6,58,0.00,,CLR,0.00,VWS V14.01,2013-02-01 08:03:00,
2013-02-01 01:08:00,23.9,12.4,30.01,SW,229,6.7,7.6,61,0.00,,CLR,0.00,VWS V14.01,2013-02-01 08:08:00,
2013-02-01 01:13:00,24.6,12.7,30.01,WSW,254,3.6,7.6,60,0.00,,CLR,0.00,VWS V14.01,2013-02-01 08:13:00,
2013-02-01 01:18:00,24.4,12.2,30.01,SW,235,6.3,7.6,59,0.00,,CLR,0.00,VWS V14.01,2013-02-01 08:18:00,
2013-02-01 01:23:00,24.6,12.7,30.01,SW,234,6.3,7.6,60,0.00,,CLR,0.00,VWS V14.01,2013-02-01 08:23:00,
2013-02-01 01:28:00,25.2,12.9,30.01,WSW,247,5.8,7.6,59,0.00,,CLR,0.00,VWS V14.01,2013-02-01 08:28:00,
2013-02-01 01:33:00,25.5,13.2,30.01,WSW,243,6.3,7.2,59,0.00,,CLR,0.00,VWS V14.01,2013-02-01 08:33:00,
2013-02-01 01:38:00,25.9,13.5,30.01,SW,233,6.3,8.7,59,0.00,,CLR,0.00,VWS V14.01,2013-02-01 08:38:00,
2013-02-01 01:43:00,26.1,13.3,30.01,WSW,250,5.8,8.7,58,0.00,,CLR,0.00,VWS V14.01,2013-02-01 08:43:00,
2013-02-01 01:48:00,26.1,12.9,30.01,WSW,243,4.5,8.7,57,0.00,,CLR,0.00,VWS V14.01,2013-02-01 08:48:00,
2013-02-01 01:53:00,26.1,13.3,30.01,SW,219,6.3,8.7,58,0.00,,CLR,0.00,VWS V14.01,2013-02-01 08:53:00,
2013-02-01 01:58:00,26.2,13.5,30.01,WSW,239,6.7,8.7,58,0.00,,CLR,0.00,VWS V14.01,2013-02-01 08:58:00,
2013-02-01 02:03:00,25.9,13.1,30.01,SW,222,5.8,6.3,58,0.00,,SCT120,0.00,VWS V14.01,2013-02-01 09:03:00,
2013-02-01 02:08:00,25.9,13.1,30.01,WSW,251,5.4,8.1,58,0.00,,SCT120,0.00,VWS V14.01,2013-02-01 09:08:00,
2013-02-01 02:13:00,25.3,12.6,30.01,WSW,237,5.8,8.1,58,0.00,,SCT120,0.00,VWS V14.01,2013-02-01 09:13:00,
2013-02-01 02:18:00,24.4,12.6,30.01,WSW,255,4.5,8.1,60,0.00,,SCT120,0.00,VWS V14.01,2013-02-01 09:18:00,
2013-02-01 02:23:00,24.1,11.8,30.01,WSW,251,5.8,8.1,59,0.00,,SCT120,0.00,VWS V14.01,2013-02-01 09:23:00,
2013-02-01 02:28:00,24.1,12.6,30.01,WSW,238,9.2,10.1,61,0.00,,SCT120,0.00,VWS V14.01,2013-02-01 09:28:00,
2013-02-01 02:33:00,24.1,11.8,30.01,WSW,240,4.9,6.3,59,0.00,,SCT120,0.00,VWS V14.01,2013-02-01 09:33:00,
2013-02-01 02:38:00,24.3,11.2,30.01,West,268,2.7,6.3,57,0.00,,SCT120,0.00,VWS V14.01,2013-02-01 09:38:00,
2013-02-01 02:43:00,23.9,11.7,30.01,WSW,239,8.1,9.6,59,0.00,,SCT120,0.00,VWS V14.01,2013-02-01 09:43:00,
2013-02-01 02:48:00,23.7,11.9,30.01,WSW,243,5.4,9.6,60,0.00,,SCT120,0.00,VWS V14.01,2013-02-01 09:48:00,
2013-02-01 02:53:00,23.2,11.4,30.01,SW,231,8.7,9.6,60,0.00,,SCT120,0.00,VWS V14.01,2013-02-01 09:53:00,
2013-02-01 02:58:00,24.1,12.6,30.01,WSW,256,5.8,10.5,61,0.00,,SCT120,0.00,VWS V14.01,2013-02-01 09:58:00,
2013-02-01 03:03:00,24.1,11.5,30.01,SW,225,8.1,8.1,58,0.00,,FEW085,0.00,VWS V14.01,2013-02-01 10:03:00,
2013-02-01 03:08:00,24.4,12.2,30.01,SW,230,6.3,8.3,59,0.00,,FEW085,0.00,VWS V14.01,2013-02-01 10:08:00,
2013-02-01 03:13:00,24.1,11.5,30.01,WSW,246,4.0,8.3,58,0.00,,FEW085,0.00,VWS V14.01,2013-02-01 10:13:00,
2013-02-01 03:18:00,23.7,11.1,30.01,West,269,5.4,8.3,58,0.00,,FEW085,0.00,VWS V14.01,2013-02-01 10:18:00,
2013-02-01 03:23:00,24.3,12.0,30.01,WSW,245,10.1,10.1,59,0.00,,FEW085,0.00,VWS V14.01,2013-02-01 10:23:00,
2013-02-01 03:28:00,24.3,12.0,30.01,WSW,256,6.3,10.1,59,0.00,,FEW085,0.00,VWS V14.01,2013-02-01 10:28:00,
2013-02-01 03:33:00,24.4,12.2,30.01,SW,233,7.6,8.3,59,0.00,,FEW085,0.00,VWS V14.01,2013-02-01 10:33:00,
2013-02-01 03:38:00,25.2,12.9,30.01,WSW,238,5.8,10.1,59,0.00,,FEW085,0.00,VWS V14.01,2013-02-01 10:38:00,
2013-02-01 03:43:00,25.3,12.6,30.01,SSW,211,7.6,10.1,58,0.00,,FEW085,0.00,VWS V14.01,2013-02-01 10:43:00,
2013-02-01 03:48:00,26.1,12.9,30.01,WSW,237,8.3,10.1,57,0.00,,FEW085,0.00,VWS V14.01,2013-02-01 10:48:00,
2013-02-01 03:53:00,25.9,12.8,30.01,SW,218,4.0,10.1,57,0.00,,FEW085,0.00,VWS V14.01,2013-02-01 10:53:00,
2013-02-01 03:58:00,26.1,12.9,30.01,WSW,249,5.4,10.1,57,0.00,,FEW085,0.00,VWS V14.01,2013-02-01 10:58:00,
2013-02-01 04:03:00,26.6,13.0,30.01,SW,232,5.8,8.1,56,0.00,,FEW085,0.00,VWS V14.01,2013-02-01 11:03:00,
2013-02-01 04:08:00,26.6,12.6,30.01,WSW,243,6.7,8.1,55,0.00,,FEW085,0.00,VWS V14.01,2013-02-01 11:08:00,
2013-02-01 04:13:00,26.4,12.9,30.01,WSW,257,5.4,8.1,56,0.00,,FEW085,0.00,VWS V14.01,2013-02-01 11:13:00,
2013-02-01 04:18:00,26.1,12.9,30.01,WSW,247,5.8,8.1,57,0.00,,FEW085,0.00,VWS V14.01,2013-02-01 11:18:00,
2013-02-01 04:23:00,25.9,13.1,30.01,WSW,245,4.0,8.1,58,0.00,,FEW085,0.00,VWS V14.01,2013-02-01 11:23:00,
2013-02-01 04:28:00,26.1,13.3,30.01,West,263,5.4,8.1,58,0.00,,FEW085,0.00,VWS V14.01,2013-02-01 11:28:00,
2013-02-01 04:33:00,26.8,13.6,30.01,WSW,257,2.7,2.7,57,0.00,,FEW085,0.00,VWS V14.01,2013-02-01 11:33:00,
2013-02-01 04:38:00,26.8,14.4,30.01,WSW,257,3.6,6.3,59,0.00,,FEW085,0.00,VWS V14.01,2013-02-01 11:38:00,
2013-02-01 04:43:00,28.0,14.0,30.01,West,266,2.7,6.7,55,0.00,,FEW085,0.00,VWS V14.01,2013-02-01 11:43:00,
2013-02-01 04:48:00,28.6,14.5,30.01,SW,229,4.0,6.7,55,0.00,,FEW085,0.00,VWS V14.01,2013-02-01 11:48:00,
2013-02-01 04:53:00,28.4,14.7,30.01,West,259,3.1,6.7,56,0.00,,FEW085,0.00,VWS V14.01,2013-02-01 11:53:00,
2013-02-01 04:58:00,27.9,14.6,30.01,WSW,254,3.6,6.7,57,0.00,,FEW085,0.00,VWS V14.01,2013-02-01 11:58:00,
2013-02-01 05:03:00,27.5,14.7,30.01,SW,230,5.4,8.1,58,0.00,,FEW085,0.00,VWS V14.01,2013-02-01 12:03:00,
2013-02-01 05:08:00,27.5,14.3,30.01,SW,234,3.6,8.1,57,0.00,,FEW085,0.00,VWS V14.01,2013-02-01 12:08:00,
2013-02-01 05:13:00,27.1,13.9,30.01,West,266,4.0,8.1,57,0.00,,FEW085,0.00,VWS V14.01,2013-02-01 12:13:00,
2013-02-01 05:18:00,26.2,13.5,30.01,SW,234,4.0,8.1,58,0.00,,FEW085,0.00,VWS V14.01,2013-02-01 12:18:00,
2013-02-01 05:23:00,25.9,13.9,30.01,SW,214,4.0,8.1,60,0.00,,FEW085,0.00,VWS V14.01,2013-02-01 12:23:00,
2013-02-01 05:28:00,25.5,14.0,30.01,WSW,241,5.4,8.1,61,0.00,,FEW085,0.00,VWS V14.01,2013-02-01 12:28:00,
2013-02-01 05:33:00,25.3,14.2,30.01,WSW,255,3.6,4.5,62,0.00,,FEW085,0.00,VWS V14.01,2013-02-01 12:33:00,
2013-02-01 05:38:00,25.3,14.9,30.01,WSW,252,4.0,4.9,64,0.00,,FEW085,0.00,VWS V14.01,2013-02-01 12:38:00,
2013-02-01 05:43:00,25.3,15.2,30.01,WSW,242,5.4,5.4,65,0.00,,FEW085,0.00,VWS V14.01,2013-02-01 12:43:00,
2013-02-01 05:48:00,25.7,15.2,30.01,WSW,243,4.9,5.4,64,0.00,,FEW085,0.00,VWS V14.01,2013-02-01 12:48:00,
2013-02-01 05:53:00,25.9,15.0,30.01,WSW,254,4.9,5.8,63,0.00,,FEW085,0.00,VWS V14.01,2013-02-01 12:53:00,
2013-02-01 05:58:00,25.7,14.5,30.01,SW,231,4.0,5.8,62,0.00,,FEW085,0.00,VWS V14.01,2013-02-01 12:58:00,
2013-02-01 06:03:00,25.7,14.5,30.01,SSW,211,5.4,5.4,62,0.00,,FEW085,0.00,VWS V14.01,2013-02-01 13:03:00,
2013-02-01 06:08:00,26.1,14.8,30.01,WSW,244,4.9,5.4,62,0.00,,FEW085,0.00,VWS V14.01,2013-02-01 13:08:00,
2013-02-01 06:13:00,26.2,14.6,30.01,SW,224,5.8,6.3,61,0.00,,FEW085,0.00,VWS V14.01,2013-02-01 13:13:00,
2013-02-01 06:18:00,26.6,14.6,30.01,WSW,251,4.0,6.3,60,0.00,,FEW085,0.00,VWS V14.01,2013-02-01 13:18:00,
2013-02-01 06:23:00,26.1,14.8,30.01,WSW,252,4.5,6.3,62,0.00,,FEW085,0.00,VWS V14.01,2013-02-01 13:23:00,
2013-02-01 06:28:00,25.9,15.4,30.01,WSW,244,3.6,6.3,64,0.00,,FEW085,0.00,VWS V14.01,2013-02-01 13:28:00,
2013-02-01 06:33:00,25.9,15.4,30.01,WSW,245,3.1,4.0,64,0.00,,FEW085,0.00,VWS V14.01,2013-02-01 13:33:00,
2013-02-01 06:38:00,25.9,15.4,30.01,SW,231,3.6,4.0,64,0.00,,FEW085,0.00,VWS V14.01,2013-02-01 13:38:00,
2013-02-01 06:43:00,25.9,15.0,30.01,SW,225,4.9,4.9,63,0.00,,FEW085,0.00,VWS V14.01,2013-02-01 13:43:00,
2013-02-01 06:48:00,26.2,15.0,30.01,SW,231,4.0,4.9,62,0.00,,FEW085,0.00,VWS V14.01,2013-02-01 13:48:00,
2013-02-01 06:53:00,26.2,15.4,30.01,WSW,245,4.0,4.9,63,0.00,,FEW085,0.00,VWS V14.01,2013-02-01 13:53:00,
2013-02-01 06:58:00,26.1,15.2,30.01,WSW,247,3.1,4.9,63,0.00,,FEW085,0.00,VWS V14.01,2013-02-01 13:58:00,
2013-02-01 07:03:00,26.6,15.4,30.01,West,260,4.0,4.0,62,0.00,,BKN085,0.00,VWS V14.01,2013-02-01 14:03:00,
2013-02-01 07:08:00,27.3,15.3,30.01,WNW,289,0.0,4.0,60,0.00,,BKN085,0.00,VWS V14.01,2013-02-01 14:08:00,
2013-02-01 07:13:00,28.0,14.8,30.01,WNW,294,3.1,4.0,57,0.00,,BKN085,0.00,VWS V14.01,2013-02-01 14:13:00,
2013-02-01 07:18:00,27.7,15.6,30.01,NW,312,0.0,4.0,60,0.00,,BKN085,0.00,VWS V14.01,2013-02-01 14:18:00,
2013-02-01 07:23:00,27.9,15.4,30.04,NW,312,0.0,4.0,59,0.00,,BKN085,0.00,VWS V14.01,2013-02-01 14:23:00,
2013-02-01 07:28:00,28.2,15.8,30.04,WNW,302,3.1,4.0,59,0.00,,BKN085,0.00,VWS V14.01,2013-02-01 14:28:00,
2013-02-01 07:33:00,28.2,16.1,30.04,West,281,0.0,2.7,60,0.00,,BKN085,0.00,VWS V14.01,2013-02-01 14:33:00,
2013-02-01 07:38:00,28.0,16.7,30.01,West,281,0.0,2.7,62,0.00,,BKN085,0.00,VWS V14.01,2013-02-01 14:38:00,
2013-02-01 07:43:00,28.2,17.6,30.01,West,261,0.0,2.7,64,0.00,,BKN085,0.00,VWS V14.01,2013-02-01 14:43:00,
2013-02-01 07:48:00,28.4,18.1,30.01,SSE,165,4.0,4.9,65,0.00,,BKN085,0.00,VWS V14.01,2013-02-01 14:48:00,
2013-02-01 07:53:00,27.9,16.9,30.01,SSW,199,3.6,5.4,63,0.00,,BKN085,0.00,VWS V14.01,2013-02-01 14:53:00,
2013-02-01 07:58:00,27.5,17.3,30.01,SW,223,3.6,5.4,65,0.00,,BKN085,0.00,VWS V14.01,2013-02-01 14:58:00,
2013-02-01 08:03:00,27.3,17.8,30.01,West,261,4.0,4.0,67,0.00,,OVC080,0.00,VWS V14.01,2013-02-01 15:03:00,
2013-02-01 08:08:00,27.7,18.9,30.04,WSW,242,4.0,5.4,69,0.00,,OVC080,0.00,VWS V14.01,2013-02-01 15:08:00,
2013-02-01 08:13:00,27.9,19.0,30.04,WSW,243,6.3,6.3,69,0.00,,OVC080,0.00,VWS V14.01,2013-02-01 15:13:00,
2013-02-01 08:18:00,28.0,18.9,30.04,SW,223,5.4,6.3,68,0.00,,OVC080,0.00,VWS V14.01,2013-02-01 15:18:00,
2013-02-01 08:23:00,28.0,18.5,30.04,SW,228,4.9,6.3,67,0.00,,OVC080,0.00,VWS V14.01,2013-02-01 15:23:00,
2013-02-01 08:28:00,28.0,18.5,30.04,West,278,5.8,6.3,67,0.00,,OVC080,0.00,VWS V14.01,2013-02-01 15:28:00,
2013-02-01 08:33:00,28.6,18.0,30.04,WNW,284,2.7,4.0,64,0.00,,OVC080,0.00,VWS V14.01,2013-02-01 15:33:00,
2013-02-01 08:38:00,28.4,17.4,30.04,West,261,3.1,5.4,63,0.00,,OVC080,0.00,VWS V14.01,2013-02-01 15:38:00,
2013-02-01 08:43:00,27.9,17.3,30.04,West,264,2.7,5.4,64,0.00,,OVC080,0.00,VWS V14.01,2013-02-01 15:43:00,
2013-02-01 08:48:00,27.9,17.6,30.04,SSW,209,3.6,5.4,65,0.00,,OVC080,0.00,VWS V14.01,2013-02-01 15:48:00,
2013-02-01 08:53:00,28.0,17.5,30.04,West,260,2.7,5.4,64,0.00,,OVC080,0.00,VWS V14.01,2013-02-01 15:53:00,
2013-02-01 08:58:00,28.2,16.5,30.04,West,271,2.7,5.4,61,0.00,,OVC080,0.00,VWS V14.01,2013-02-01 15:58:00,
2013-02-01 09:03:00,28.8,16.2,30.04,WNW,293,2.2,5.4,59,0.00,,OVC080,0.00,VWS V14.01,2013-02-01 16:03:00,
2013-02-01 09:08:00,29.5,16.9,30.04,NW,304,0.0,5.4,59,0.00,,OVC090,0.00,VWS V14.01,2013-02-01 16:08:00,
2013-02-01 09:13:00,30.2,17.6,30.04,NNW,343,2.2,5.4,59,0.00,,OVC090,0.00,VWS V14.01,2013-02-01 16:13:00,
2013-02-01 09:18:00,30.9,17.9,30.04,NNW,343,0.0,5.4,58,0.00,,OVC090,0.00,VWS V14.01,2013-02-01 16:18:00,
2013-02-01 09:23:00,31.6,17.8,30.04,NNW,343,0.0,5.4,56,0.00,,OVC090,0.00,VWS V14.01,2013-02-01 16:23:00,
2013-02-01 09:28:00,32.2,17.8,30.04,NE,38,3.6,5.4,55,0.00,,OVC090,0.00,VWS V14.01,2013-02-01 16:28:00,
2013-02-01 09:33:00,32.7,17.9,30.04,NE,49,2.7,3.1,54,0.00,,OVC090,0.00,VWS V14.01,2013-02-01 16:33:00,
2013-02-01 09:38:00,33.1,17.4,30.04,ENE,59,2.7,4.0,52,0.00,,OVC090,0.00,VWS V14.01,2013-02-01 16:38:00,
2013-02-01 09:43:00,32.9,17.2,30.04,ESE,118,2.7,4.0,52,0.00,,OVC090,0.00,VWS V14.01,2013-02-01 16:43:00,
2013-02-01 09:48:00,33.1,16.9,30.04,SSE,150,0.0,4.0,51,0.00,,OVC090,0.00,VWS V14.01,2013-02-01 16:48:00,
2013-02-01 09:53:00,33.8,17.1,30.04,South,181,0.0,4.0,50,0.00,,OVC090,0.00,VWS V14.01,2013-02-01 16:53:00,
2013-02-01 09:58:00,33.6,17.9,30.04,SSE,152,2.2,5.4,52,0.00,,OVC090,0.00,VWS V14.01,2013-02-01 16:58:00,
2013-02-01 10:03:00,34.2,17.5,30.04,East,99,2.7,3.6,50,0.00,,OVC090,0.00,VWS V14.01,2013-02-01 17:03:00,
2013-02-01 10:08:00,35.4,18.2,30.07,East,86,0.0,3.6,49,0.00,,OVC090,0.00,VWS V14.01,2013-02-01 17:08:00,
2013-02-01 10:13:00,35.6,17.4,30.07,NE,36,2.2,3.6,47,0.00,,OVC090,0.00,VWS V14.01,2013-02-01 17:13:00,
2013-02-01 10:18:00,34.7,17.0,30.07,North,11,2.2,3.6,48,0.00,,OVC090,0.00,VWS V14.01,2013-02-01 17:18:00,
2013-02-01 10:23:00,34.0,17.3,30.07,NNW,337,2.7,3.6,50,0.00,,OVC090,0.00,VWS V14.01,2013-02-01 17:23:00,
2013-02-01 10:28:00,33.3,17.1,30.07,NNW,335,2.7,3.6,51,0.00,,OVC090,0.00,VWS V14.01,2013-02-01 17:28:00,
2013-02-01 10:33:00,33.8,17.1,30.07,NNW,333,2.7,3.6,50,0.00,,OVC090,0.00,VWS V14.01,2013-02-01 17:33:00,
2013-02-01 10:38:00,35.8,17.0,30.07,North,353,5.8,8.1,46,0.00,,OVC090,0.00,VWS V14.01,2013-02-01 17:38:00,
2013-02-01 10:43:00,35.4,16.7,30.07,NNW,327,4.0,10.1,46,0.00,,OVC090,0.00,VWS V14.01,2013-02-01 17:43:00,
2013-02-01 10:48:00,37.2,17.3,30.07,NNW,338,3.6,10.1,44,0.00,,OVC090,0.00,VWS V14.01,2013-02-01 17:48:00,
2013-02-01 10:53:00,35.4,16.2,30.07,North,0,5.4,10.1,45,0.00,,OVC090,0.00,VWS V14.01,2013-02-01 17:53:00,
2013-02-01 10:58:00,33.8,17.1,30.07,NW,306,10.5,13.2,50,0.00,,OVC090,0.00,VWS V14.01,2013-02-01 17:58:00,
2013-02-01 11:03:00,34.0,17.8,30.07,NNW,329,5.4,10.5,51,0.00,,OVC090,0.00,VWS V14.01,2013-02-01 18:03:00,
2013-02-01 11:08:00,33.6,17.9,30.07,NNW,335,10.5,19.2,52,0.00,,BKN120,0.00,VWS V14.01,2013-02-01 18:08:00,
2013-02-01 11:13:00,35.1,18.8,30.07,NNW,333,11.0,19.2,51,0.00,,BKN120,0.00,VWS V14.01,2013-02-01 18:13:00,
2013-02-01 11:18:00,35.4,18.6,30.07,NNW,331,8.3,19.2,50,0.00,,BKN120,0.00,VWS V14.01,2013-02-01 18:18:00,
2013-02-01 11:23:00,35.2,18.5,30.07,North,353,8.1,19.2,50,0.00,,BKN120,0.00,VWS V14.01,2013-02-01 18:23:00,
2013-02-01 11:28:00,35.4,18.6,30.07,NW,310,14.1,19.2,50,0.00,,BKN120,0.00,VWS V14.01,2013-02-01 18:28:00,
2013-02-01 11:33:00,35.4,17.7,30.07,NNW,329,13.2,13.2,48,0.00,,BKN120,0.00,VWS V14.01,2013-02-01 18:33:00,
2013-02-01 11:38:00,35.2,17.0,30.07,NNW,331,10.1,17.4,47,0.00,,BKN120,0.00,VWS V14.01,2013-02-01 18:38:00,
2013-02-01 11:43:00,36.0,17.2,30.07,NNW,332,11.0,17.4,46,0.00,,BKN120,0.00,VWS V14.01,2013-02-01 18:43:00,
2013-02-01 11:48:00,36.0,17.2,30.07,NNW,331,9.6,17.4,46,0.00,,BKN120,0.00,VWS V14.01,2013-02-01 18:48:00,
2013-02-01 11:53:00,36.3,17.0,30.07,North,350,8.3,17.4,45,0.00,,BKN120,0.00,VWS V14.01,2013-02-01 18:53:00,
2013-02-01 11:58:00,36.1,16.4,30.07,NNW,332,13.2,17.4,44,0.00,,BKN120,0.00,VWS V14.01,2013-02-01 18:58:00,
2013-02-01 12:03:00,36.1,15.8,30.07,NNW,339,13.2,13.2,43,0.00,,BKN120,0.00,VWS V14.01,2013-02-01 19:03:00,
2013-02-01 12:08:00,35.8,15.5,30.07,NNE,12,10.5,17.0,43,0.00,,BKN120,0.00,VWS V14.01,2013-02-01 19:08:00,
2013-02-01 12:12:00,35.1,15.4,30.07,NNW,331,12.8,17.9,44,0.00,,BKN120,0.00,VWS V14.01,2013-02-01 19:12:00,
2013-02-01 12:17:00,35.1,15.4,30.07,NW,324,10.5,17.9,44,0.00,,BKN120,0.00,VWS V14.01,2013-02-01 19:17:00,
2013-02-01 12:22:00,34.9,15.2,30.07,NW,324,15.4,17.9,44,0.00,,BKN120,0.00,VWS V14.01,2013-02-01 19:22:00,
2013-02-01 12:27:00,34.9,15.7,30.07,NNW,344,8.3,17.9,45,0.00,,BKN120,0.00,VWS V14.01,2013-02-01 19:27:00,
2013-02-01 12:32:00,34.5,15.4,30.07,NNW,334,10.1,13.2,45,0.00,,BKN120,0.00,VWS V14.01,2013-02-01 19:32:00,
2013-02-01 12:37:00,35.1,15.9,30.07,North,349,10.5,14.5,45,0.00,,BKN120,0.00,VWS V14.01,2013-02-01 19:37:00,
2013-02-01 12:42:00,35.4,16.2,30.07,NNW,327,10.1,15.4,45,0.00,,BKN120,0.00,VWS V14.01,2013-02-01 19:42:00,
2013-02-01 12:47:00,36.1,16.4,30.07,North,353,10.1,15.4,44,0.00,,BKN120,0.00,VWS V14.01,2013-02-01 19:47:00,
2013-02-01 12:52:00,35.1,15.4,30.07,NNW,340,6.3,15.4,44,0.00,,BKN120,0.00,VWS V14.01,2013-02-01 19:52:00,
2013-02-01 12:57:00,34.5,15.4,30.07,North,357,8.3,15.4,45,0.00,,BKN120,0.00,VWS V14.01,2013-02-01 19:57:00,
2013-02-01 13:02:00,35.1,15.9,30.07,North,349,11.0,11.0,45,0.00,,BKN090,0.00,VWS V14.01,2013-02-01 20:02:00,
2013-02-01 13:07:00,35.1,15.4,30.07,NNW,338,7.6,14.1,44,0.00,,BKN090,0.00,VWS V14.01,2013-02-01 20:07:00,
2013-02-01 13:12:00,34.0,14.4,30.07,NW,324,10.5,14.1,44,0.00,,BKN090,0.00,VWS V14.01,2013-02-01 20:12:00,
2013-02-01 13:17:00,34.9,15.2,30.07,NNW,327,7.6,15.4,44,0.00,,BKN090,0.00,VWS V14.01,2013-02-01 20:17:00,
2013-02-01 13:22:00,35.4,15.7,30.07,North,8,6.3,15.4,44,0.00,,BKN090,0.00,VWS V14.01,2013-02-01 20:22:00,
2013-02-01 13:27:00,35.4,15.2,30.07,NNW,340,8.7,15.4,43,0.00,,BKN090,0.00,VWS V14.01,2013-02-01 20:27:00,
2013-02-01 13:32:00,35.4,15.2,30.07,NW,325,10.5,11.0,43,0.00,,BKN090,0.00,VWS V14.01,2013-02-01 20:32:00,
2013-02-01 13:37:00,35.6,15.3,30.07,NNW,330,7.6,11.4,43,0.00,,BKN090,0.00,VWS V14.01,2013-02-01 20:37:00,
2013-02-01 13:42:00,35.4,15.2,30.07,North,0,5.4,11.4,43,0.00,,BKN090,0.00,VWS V14.01,2013-02-01 20:42:00,
2013-02-01 13:47:00,35.2,15.0,30.07,NW,316,6.3,12.8,43,0.00,,BKN090,0.00,VWS V14.01,2013-02-01 20:47:00,
2013-02-01 13:52:00,35.6,14.8,30.07,NNW,334,10.5,17.4,42,0.00,,BKN090,0.00,VWS V14.01,2013-02-01 20:52:00,
2013-02-01 13:57:00,35.2,14.5,30.07,North,353,8.7,17.4,42,0.00,,BKN090,0.00,VWS V14.01,2013-02-01 20:57:00,
2013-02-01 14:02:00,35.4,14.6,30.07,North,0,6.3,8.1,42,0.00,,BKN090,0.00,VWS V14.01,2013-02-01 21:02:00,
2013-02-01 14:07:00,35.6,14.2,30.07,NNW,327,8.1,12.8,41,0.00,,OVC080,0.00,VWS V14.01,2013-02-01 21:07:00,
2013-02-01 14:12:00,35.6,14.8,30.07,North,349,8.7,12.8,42,0.00,,OVC080,0.00,VWS V14.01,2013-02-01 21:12:00,
2013-02-01 14:17:00,35.8,14.4,30.07,NNW,348,5.8,12.8,41,0.00,,OVC080,0.00,VWS V14.01,2013-02-01 21:17:00,
2013-02-01 14:22:00,35.6,14.2,30.07,North,4,5.4,12.8,41,0.00,,OVC080,0.00,VWS V14.01,2013-02-01 21:22:00,
2013-02-01 14:27:00,35.1,14.3,30.07,NNE,12,6.3,12.8,42,0.00,,OVC080,0.00,VWS V14.01,2013-02-01 21:27:00,
2013-02-01 14:32:00,35.6,14.2,30.07,NNW,348,5.4,5.8,41,0.00,,OVC080,0.00,VWS V14.01,2013-02-01 21:32:00,
2013-02-01 14:37:00,36.0,14.6,30.07,North,8,4.5,6.3,41,0.00,,OVC080,0.00,VWS V14.01,2013-02-01 21:37:00,
2013-02-01 14:42:00,36.3,14.9,30.07,NNE,32,3.1,7.6,41,0.00,,OVC080,0.00,VWS V14.01,2013-02-01 21:42:00,
2013-02-01 14:47:00,35.4,14.6,30.07,SE,127,4.9,7.6,42,0.00,,OVC080,0.00,VWS V14.01,2013-02-01 21:47:00,
2013-02-01 14:52:00,36.1,14.7,30.07,ESE,104,3.6,7.6,41,0.00,,OVC080,0.00,VWS V14.01,2013-02-01 21:52:00,
2013-02-01 14:57:00,36.7,15.2,30.07,ENE,66,6.3,7.6,41,0.00,,OVC080,0.00,VWS V14.01,2013-02-01 21:57:00,
2013-02-01 15:02:00,36.7,15.2,30.07,SE,125,4.5,5.4,41,0.00,,OVC080,0.00,VWS V14.01,2013-02-01 22:02:00,
2013-02-01 15:07:00,37.4,15.3,30.10,ESE,104,3.6,5.8,40,0.00,,SCT090,0.00,VWS V14.01,2013-02-01 22:07:00,
2013-02-01 15:12:00,38.1,15.9,30.10,ESE,115,3.1,5.8,40,0.00,,SCT090,0.00,VWS V14.01,2013-02-01 22:12:00,
2013-02-01 15:17:00,37.9,15.2,30.10,SE,124,4.0,5.8,39,0.00,,SCT090,0.00,VWS V14.01,2013-02-01 22:17:00,
2013-02-01 15:22:00,39.7,16.8,30.10,SE,136,2.7,5.8,39,0.00,,SCT090,0.00,VWS V14.01,2013-02-01 22:22:00,
2013-02-01 15:27:00,38.7,15.9,30.10,SSE,147,2.7,5.8,39,0.00,,SCT090,0.00,VWS V14.01,2013-02-01 22:27:00,
2013-02-01 15:32:00,38.3,15.5,30.10,SSE,150,3.6,4.0,39,0.00,,SCT090,0.00,VWS V14.01,2013-02-01 22:32:00,
2013-02-01 15:37:00,37.6,14.9,30.10,SE,139,4.0,6.7,39,0.00,,SCT090,0.00,VWS V14.01,2013-02-01 22:37:00,
2013-02-01 15:42:00,36.7,14.6,30.10,SE,133,4.9,7.6,40,0.00,,SCT090,0.00,VWS V14.01,2013-02-01 22:42:00,
2013-02-01 15:47:00,36.3,14.3,30.10,SE,139,4.9,7.6,40,0.00,,SCT090,0.00,VWS V14.01,2013-02-01 22:47:00,
2013-02-01 15:52:00,36.1,14.2,30.10,ESE,114,4.0,7.6,40,0.00,,SCT090,0.00,VWS V14.01,2013-02-01 22:52:00,
2013-02-01 15:57:00,36.7,14.6,30.10,SSE,150,2.7,7.6,40,0.00,,SCT090,0.00,VWS V14.01,2013-02-01 22:57:00,
2013-02-01 16:02:00,36.7,14.6,30.10,SE,134,2.7,3.6,40,0.00,,SCT090,0.00,VWS V14.01,2013-02-01 23:02:00,
2013-02-01 16:07:00,36.0,14.0,30.10,SE,131,4.0,5.8,40,0.00,,CLR,0.00,VWS V14.01,2013-02-01 23:07:00,
2013-02-01 16:12:00,36.9,14.8,30.10,SSE,157,3.1,5.8,40,0.00,,CLR,0.00,VWS V14.01,2013-02-01 23:12:00,
2013-02-01 16:17:00,36.9,14.8,30.10,SE,146,3.6,6.3,40,0.00,,CLR,0.00,VWS V14.01,2013-02-01 23:17:00,
2013-02-01 16:22:00,37.0,14.4,30.10,South,176,3.6,6.3,39,0.00,,CLR,0.00,VWS V14.01,2013-02-01 23:22:00,
2013-02-01 16:27:00,38.5,15.7,30.10,South,191,3.1,6.3,39,0.00,,CLR,0.00,VWS V14.01,2013-02-01 23:27:00,
2013-02-01 16:32:00,38.7,15.9,30.10,SSW,211,3.1,6.3,39,0.00,,CLR,0.00,VWS V14.01,2013-02-01 23:32:00,
2013-02-01 16:37:00,35.6,12.5,30.10,West,264,5.4,6.3,38,0.00,,CLR,0.00,VWS V14.01,2013-02-01 23:37:00,
2013-02-01 16:42:00,28.8,8.0,30.10,West,263,2.7,6.3,41,0.00,,CLR,0.00,VWS V14.01,2013-02-01 23:42:00,
2013-02-01 16:47:00,25.3,8.9,30.10,WSW,245,3.1,6.3,49,0.00,,CLR,0.00,VWS V14.01,2013-02-01 23:47:00,
2013-02-01 16:52:00,24.3,10.0,30.10,SW,228,3.1,6.3,54,0.00,,CLR,0.00,VWS V14.01,2013-02-01 23:52:00,
2013-02-01 16:57:00,23.9,9.7,30.10,SW,222,6.3,7.2,54,0.00,,CLR,0.00,VWS V14.01,2013-02-01 23:57:00,
2013-02-01 17:02:00,23.5,10.2,30.10,SW,236,4.9,4.9,56,0.00,,BKN075,0.00,VWS V14.01,2013-02-02 00:02:00,
2013-02-01 17:07:00,22.5,9.5,30.10,WSW,246,2.7,4.9,57,0.00,,BKN075,0.00,VWS V14.01,2013-02-02 00:07:00,
2013-02-01 17:12:00,21.4,8.9,30.10,WSW,240,4.5,5.8,58,0.00,,BKN075,0.00,VWS V14.01,2013-02-02 00:12:00,
2013-02-01 17:17:00,20.8,9.9,30.10,WSW,240,4.9,5.8,62,0.00,,BKN075,0.00,VWS V14.01,2013-02-02 00:17:00,
2013-02-01 17:22:00,21.2,10.2,30.10,WSW,240,5.4,5.8,62,0.00,,BKN075,0.00,VWS V14.01,2013-02-02 00:22:00,
2013-02-01 17:27:00,21.6,9.5,30.10,WSW,253,5.4,6.7,59,0.00,,BKN075,0.00,VWS V14.01,2013-02-02 00:27:00,
2013-02-01 17:32:00,21.9,11.3,30.10,SW,217,3.1,4.5,63,0.00,,BKN075,0.00,VWS V14.01,2013-02-02 00:32:00,
2013-02-01 17:37:00,21.9,8.6,30.10,West,262,6.3,6.3,56,0.00,,BKN075,0.00,VWS V14.01,2013-02-02 00:37:00,
2013-02-01 17:42:00,21.6,8.3,30.10,SW,226,4.0,7.2,56,0.00,,BKN075,0.00,VWS V14.01,2013-02-02 00:42:00,
2013-02-01 17:47:00,21.9,8.2,30.10,WSW,249,5.8,7.2,55,0.00,,BKN075,0.00,VWS V14.01,2013-02-02 00:47:00,
2013-02-01 17:52:00,21.0,6.6,30.10,WSW,244,5.8,7.2,53,0.00,,BKN075,0.00,VWS V14.01,2013-02-02 00:52:00,
2013-02-01 17:57:00,22.3,7.3,30.10,SW,228,4.0,7.2,52,0.00,,BKN075,0.00,VWS V14.01,2013-02-02 00:57:00,
2013-02-01 18:02:00,21.7,7.3,30.10,WSW,258,6.3,6.3,53,0.00,,SCT065,0.00,VWS V14.01,2013-02-02 01:02:00,
2013-02-01 18:07:00,20.7,5.8,30.10,WSW,244,5.4,7.6,52,0.00,,SCT065,0.00,VWS V14.01,2013-02-02 01:07:00,
2013-02-01 18:12:00,21.4,6.5,30.10,SW,232,6.7,7.6,52,0.00,,SCT065,0.00,VWS V14.01,2013-02-02 01:12:00,
2013-02-01 18:17:00,21.6,7.1,30.10,WSW,248,5.4,7.6,53,0.00,,SCT065,0.00,VWS V14.01,2013-02-02 01:17:00,
2013-02-01 18:22:00,21.2,6.8,30.10,WSW,248,4.9,7.6,53,0.00,,SCT065,0.00,VWS V14.01,2013-02-02 01:22:00,
2013-02-01 18:27:00,21.2,7.2,30.13,WSW,248,5.4,7.6,54,0.00,,SCT065,0.00,VWS V14.01,2013-02-02 01:27:00,
2013-02-01 18:32:00,21.9,7.8,30.13,SW,219,3.6,5.4,54,0.00,,SCT065,0.00,VWS V14.01,2013-02-02 01:32:00,
2013-02-01 18:37:00,22.8,8.3,30.13,SSW,213,3.6,5.4,53,0.00,,SCT065,0.00,VWS V14.01,2013-02-02 01:37:00,
2013-02-01 18:42:00,22.5,7.9,30.13,SSW,213,2.2,5.4,53,0.00,,SCT065,0.00,VWS V14.01,2013-02-02 01:42:00,
2013-02-01 18:47:00,22.8,8.3,30.13,SSW,213,2.2,5.4,53,0.00,,SCT065,0.00,VWS V14.01,2013-02-02 01:47:00,
2013-02-01 18:52:00,22.5,7.9,30.13,WSW,242,4.0,5.4,53,0.00,,SCT065,0.00,VWS V14.01,2013-02-02 01:52:00,
2013-02-01 18:57:00,21.9,8.2,30.13,WSW,243,2.2,5.4,55,0.00,,SCT065,0.00,VWS V14.01,2013-02-02 01:57:00,
2013-02-01 19:02:00,22.6,8.9,30.13,WSW,249,3.6,3.6,55,0.00,,CLR,0.00,VWS V14.01,2013-02-02 02:02:00,
2013-02-01 19:07:00,21.9,8.6,30.13,SW,235,4.9,5.4,56,0.00,,CLR,0.00,VWS V14.01,2013-02-02 02:07:00,
2013-02-01 19:12:00,21.9,8.2,30.13,SW,229,5.4,5.8,55,0.00,,CLR,0.00,VWS V14.01,2013-02-02 02:12:00,
2013-02-01 19:17:00,21.9,8.6,30.13,SW,226,6.3,6.3,56,0.00,,CLR,0.00,VWS V14.01,2013-02-02 02:17:00,
2013-02-01 19:22:00,22.8,9.1,30.13,SW,225,6.3,6.7,55,0.00,,CLR,0.00,VWS V14.01,2013-02-02 02:22:00,
2013-02-01 19:27:00,23.0,8.4,30.13,SW,231,7.6,7.6,53,0.00,,CLR,0.00,VWS V14.01,2013-02-02 02:27:00,
2013-02-01 19:32:00,23.0,8.4,30.13,SW,229,5.8,6.3,53,0.00,,CLR,0.00,VWS V14.01,2013-02-02 02:32:00,
2013-02-01 19:37:00,22.8,8.3,30.13,SW,227,6.3,7.2,53,0.00,,CLR,0.00,VWS V14.01,2013-02-02 02:37:00,
2013-02-01 19:42:00,22.6,8.1,30.16,SW,232,5.4,7.2,53,0.00,,CLR,0.00,VWS V14.01,2013-02-02 02:42:00,
2013-02-01 19:47:00,22.8,8.3,30.16,SW,222,5.8,7.2,53,0.00,,CLR,0.00,VWS V14.01,2013-02-02 02:47:00,
2013-02-01 19:52:00,22.8,7.8,30.16,SW,231,7.6,8.1,52,0.00,,CLR,0.00,VWS V14.01,2013-02-02 02:52:00,
2013-02-01 19:57:00,23.0,8.0,30.16,SW,229,6.3,8.1,52,0.00,,CLR,0.00,VWS V14.01,2013-02-02 02:57:00,
2013-02-01 20:02:00,23.4,7.9,30.16,SW,233,7.6,7.6,51,0.00,,CLR,0.00,VWS V14.01,2013-02-02 03:02:00,
2013-02-01 20:07:00,23.2,8.2,30.16,SW,231,7.6,7.6,52,0.00,,CLR,0.00,VWS V14.01,2013-02-02 03:07:00,
2013-02-01 20:12:00,23.5,8.1,30.16,SW,229,8.1,8.3,51,0.00,,CLR,0.00,VWS V14.01,2013-02-02 03:12:00,
2013-02-01 20:17:00,22.8,7.4,30.16,SW,229,7.2,8.3,51,0.00,,CLR,0.00,VWS V14.01,2013-02-02 03:17:00,
2013-02-01 20:22:00,22.8,7.4,30.16,SW,235,6.3,8.3,51,0.00,,CLR,0.00,VWS V14.01,2013-02-02 03:22:00,
2013-02-01 20:27:00,23.0,7.6,30.16,WSW,248,4.0,8.7,51,0.00,,CLR,0.00,VWS V14.01,2013-02-02 03:27:00,
2013-02-01 20:32:00,22.8,7.0,30.16,WSW,246,8.3,8.3,50,0.00,,CLR,0.00,VWS V14.01,2013-02-02 03:32:00,
2013-02-01 20:37:00,23.2,7.3,30.16,WSW,238,11.0,12.3,50,0.00,,CLR,0.00,VWS V14.01,2013-02-02 03:37:00,
2013-02-01 20:42:00,23.4,7.0,30.16,WSW,243,9.2,12.3,49,0.00,,CLR,0.00,VWS V14.01,2013-02-02 03:42:00,
2013-02-01 20:47:00,22.5,6.6,30.16,WSW,237,7.6,12.3,50,0.00,,CLR,0.00,VWS V14.01,2013-02-02 03:47:00,
2013-02-01 20:52:00,22.1,7.2,30.16,SW,233,5.8,12.3,52,0.00,,CLR,0.00,VWS V14.01,2013-02-02 03:52:00,
2013-02-01 20:57:00,22.6,7.2,30.16,SW,232,6.3,12.3,51,0.00,,CLR,0.00,VWS V14.01,2013-02-02 03:57:00,
2013-02-01 21:02:00,22.1,6.8,30.16,WSW,248,6.3,6.3,51,0.00,,FEW090,0.00,VWS V14.01,2013-02-02 04:02:00,
2013-02-01 21:07:00,21.0,6.2,30.16,SW,231,6.3,7.2,52,0.00,,FEW090,0.00,VWS V14.01,2013-02-02 04:07:00,
2013-02-01 21:12:00,21.9,7.0,30.19,SW,235,7.6,8.3,52,0.00,,FEW090,0.00,VWS V14.01,2013-02-02 04:12:00,
2013-02-01 21:17:00,21.4,6.5,30.19,WSW,246,4.5,8.3,52,0.00,,FEW090,0.00,VWS V14.01,2013-02-02 04:17:00,
2013-02-01 21:22:00,19.9,5.6,30.19,WSW,241,7.6,8.3,53,0.00,,FEW090,0.00,VWS V14.01,2013-02-02 04:22:00,
2013-02-01 21:27:00,19.2,5.7,30.19,SW,233,8.7,10.1,55,0.00,,FEW090,0.00,VWS V14.01,2013-02-02 04:27:00,
2013-02-01 21:32:00,20.5,6.9,30.19,SSW,202,5.8,5.8,55,0.00,,FEW090,0.00,VWS V14.01,2013-02-02 04:32:00,
2013-02-01 21:37:00,22.5,7.9,30.19,South,184,7.6,7.6,53,0.00,,FEW090,0.00,VWS V14.01,2013-02-02 04:37:00,
2013-02-01 21:42:00,21.2,6.3,30.19,SSW,206,5.4,7.6,52,0.00,,FEW090,0.00,VWS V14.01,2013-02-02 04:42:00,
2013-02-01 21:47:00,20.8,6.4,30.19,SW,233,5.4,8.3,53,0.00,,FEW090,0.00,VWS V14.01,2013-02-02 04:47:00,
2013-02-01 21:52:00,20.7,5.8,30.19,WSW,240,5.4,8.3,52,0.00,,FEW090,0.00,VWS V14.01,2013-02-02 04:52:00,
2013-02-01 21:57:00,19.9,5.6,30.19,SW,233,6.3,8.3,53,0.00,,FEW090,0.00,VWS V14.01,2013-02-02 04:57:00,
2013-02-01 22:00:00,19.8,5.8,30.19,SW,233,6.7,8.3,54,0.00,,FEW090,0.00,VWS V14.01,2013-02-02 05:00:00,
2013-02-01 22:05:00,19.6,5.7,30.19,WSW,258,5.4,8.7,54,0.00,,CLR,0.00,VWS V14.01,2013-02-02 05:05:00,
2013-02-01 22:10:00,19.2,5.3,30.19,WSW,238,6.3,8.7,54,0.00,,CLR,0.00,VWS V14.01,2013-02-02 05:10:00,
2013-02-01 22:15:00,19.0,5.9,30.19,WSW,243,6.3,9.2,56,0.00,,CLR,0.00,VWS V14.01,2013-02-02 05:15:00,
2013-02-01 22:20:00,19.2,6.1,30.19,WSW,245,7.6,9.2,56,0.00,,CLR,0.00,VWS V14.01,2013-02-02 05:20:00,
2013-02-01 22:25:00,19.8,5.8,30.22,WSW,248,5.4,9.2,54,0.00,,CLR,0.00,VWS V14.01,2013-02-02 05:25:00,
2013-02-01 22:30:00,19.2,5.3,30.22,WSW,247,7.6,9.2,54,0.00,,CLR,0.00,VWS V14.01,2013-02-02 05:30:00,
2013-02-01 22:35:00,18.7,5.6,30.22,WSW,244,5.4,8.1,56,0.00,,CLR,0.00,VWS V14.01,2013-02-02 05:35:00,
2013-02-01 22:40:00,19.4,5.9,30.22,West,260,6.3,8.1,55,0.00,,CLR,0.00,VWS V14.01,2013-02-02 05:40:00,
2013-02-01 22:45:00,20.7,6.7,30.22,WSW,240,8.1,10.5,54,0.00,,CLR,0.00,VWS V14.01,2013-02-02 05:45:00,
2013-02-01 22:50:00,21.4,6.1,30.22,WSW,258,8.3,11.0,51,0.00,,CLR,0.00,VWS V14.01,2013-02-02 05:50:00,
2013-02-01 22:55:00,21.7,6.0,30.22,West,261,11.0,11.0,50,0.00,,CLR,0.00,VWS V14.01,2013-02-02 05:55:00,
2013-02-01 23:00:00,21.9,5.7,30.22,WSW,238,11.0,13.6,49,0.00,,CLR,0.00,VWS V14.01,2013-02-02 06:00:00,
2013-02-01 23:05:00,21.6,5.8,30.22,SW,235,10.5,14.5,50,0.00,,CLR,0.00,VWS V14.01,2013-02-02 06:05:00,
2013-02-01 23:10:00,21.7,5.5,30.22,SW,234,11.9,14.5,49,0.00,,CLR,0.00,VWS V14.01,2013-02-02 06:10:00,
2013-02-01 23:15:00,21.9,6.1,30.22,WSW,245,13.2,15.0,50,0.00,,CLR,0.00,VWS V14.01,2013-02-02 06:15:00,
2013-02-01 23:20:00,21.7,5.5,30.22,SW,233,11.0,15.4,49,0.00,,CLR,0.00,VWS V14.01,2013-02-02 06:20:00,
2013-02-01 23:25:00,21.9,5.7,30.22,WSW,245,12.3,15.9,49,0.00,,CLR,0.00,VWS V14.01,2013-02-02 06:25:00,
2013-02-01 23:30:00,21.9,5.7,30.22,SW,234,11.0,15.9,49,0.00,,CLR,0.00,VWS V14.01,2013-02-02 06:30:00,
2013-02-01 23:35:00,21.7,5.5,30.22,SW,230,10.5,15.4,49,0.00,,CLR,0.00,VWS V14.01,2013-02-02 06:35:00,
2013-02-01 23:40:00,21.6,5.8,30.22,WSW,244,11.0,15.4,50,0.00,,CLR,0.00,VWS V14.01,2013-02-02 06:40:00,
2013-02-01 23:45:00,21.4,5.6,30.22,WSW,240,15.4,15.4,50,0.00,,CLR,0.00,VWS V14.01,2013-02-02 06:45:00,
2013-02-01 23:50:00,21.7,6.0,30.22,WSW,242,15.0,15.4,50,0.00,,CLR,0.00,VWS V14.01,2013-02-02 06:50:00,
2013-02-01 23:55:00,21.4,5.2,30.19,WSW,251,15.9,16.3,49,0.00,,CLR,0.00,VWS V14.01,2013-02-02 06:55:00,